馬公航空站 - ATIS

METAR RCQC 140200Z 27004KT 9999 FEW014 SCT021 31/24 Q1008 NOSIG RMK A2978=

站台狀態:Online
最後更新:2022-08-14 10:30:01